Medford, OR (97501)

19:00 PDT le 20 septembre 2014 (GMT -0700)
Southwest Medford (CW2551) | Change Station
CLOSE
Current Station
Stations météorologiques personnelles
Location: Medford, OR
Altitude: 1472 ft
Stations météo à proximité

Alt. 1472 ft 42.31 °N, 122.90 °W | Updated 0 second ago

Ciel dégagé
Ciel dégagé
80.3 ° F
Paraît 80 ° F
N
3.5
Vent Variable Vent de ONO
Gusts 3.5 mph

Aujourd'hui
Haut(e) -- | Bas -- ° F
--% Risque de précip.
Hier
Haut(e) -- | Bas -- ° F
Precip. -- pouce
6:56 AM 7:12 PM
Lune descendante, 9% visible
Pression 29.75 pouce
Visibilité 10.0 Miles terrestres
Nuages Ciel dégagé
indice de chaleur 80 ° F
Point de rosée 55 ° F
Humidité 42%
Précipitations 0.00 pouce
Profondeur de la couche neigeuse 0 in , 0 in , 0 in
UV 0.0 sur 12
Pollen 4.10 sur 12
Qualité de l'air Non disponible.
Flu Activity Non disponible.
METAR KMFR 210153Z 28004KT 10SM CLR 34/07 A2979 RMK AO2 SLP074 T03440072

More Conditions Fewer Conditions

Pression 29.75 pouce
Visibilité 10.0 Miles terrestres
Nuages Ciel dégagé
indice de chaleur 80 ° F
Point de rosée 55 ° F
Humidité 42%
Précipitations 0.00 pouce
Profondeur de la couche neigeuse 0 in , 0 in , 0 in
UV 0.0 sur 12
Pollen 4.10 sur 12
Qualité de l'air Non disponible.
Flu Activity Non disponible.
METAR KMFR 210153Z 28004KT 10SM CLR 34/07 A2979 RMK AO2 SLP074 T03440072

More Conditions Fewer Conditions

10-Day Weather Forecast

Almanac

Astronomie

Sep. 20, 2014 Lever Coucher
Temps réel 06:56 PDT 19:12 PDT
Crépuscule civil 06:28 PDT 19:40 PDT
Crépuscule nautique 05:55 PDT 20:13 PDT
Crépuscule astronomique 05:22 PDT 20:46 PDT
Lune 03:38 PDT (9/20) 17:21 PDT (9/20)
Durée de lumière visible 13h 11m
Longueur du jour
12h 15m
Tomorrow will be 2m 50s shorter.
Lune descendante, 9% of the Moon is Illuminated
Aujourd'hui
Lune descendante
Sep 24
Nouveau
Oct 1
Premier quartier
Oct 8
Pleine lune
Oct 15
Dernier quartier

Extrêmes aujourd'hui

State Highs State Lows

Community

WunderPhotos

Upload Photos

1,755,032 Photos téléchargées !

WunderBlogs® & News

Nearby

Épaisseur de neige

Station Depth Altitude
Mud Ridge 0 in 3800 ft
Blazed Alder 0 in 3650 ft
Salt Creek Falls 0 in 4000 ft
Bigelow Camp 0 in 5120 ft
Bourne 0 in 5800 ft

Activité sismique

Ville Distance Mag. Time & Date
Eureka, California 120 Miles terrestres 3.1 13:33 PDT
2014-09-20
Minimum magnitude displayed is 2.5.

Températures des eaux côtières

Lieu Température
Aucun rapport de station

Stations météo à proximité